sensor_id;sensor_type;location;lat;lon;timestamp;pressure;altitude;pressure_sealevel;temperature;humidity
50292;BME280;36190;54.980;73.388;2023-08-12T00:02:03;99811.56;;;12.85;92.57
50292;BME280;36190;54.980;73.388;2023-08-12T00:04:30;99809.50;;;12.87;92.46
50292;BME280;36190;54.980;73.388;2023-08-12T00:06:58;99809.13;;;12.90;92.48
50292;BME280;36190;54.980;73.388;2023-08-12T00:09:26;99810.16;;;12.89;92.53
50292;BME280;36190;54.980;73.388;2023-08-12T00:11:53;99808.09;;;12.91;92.59
50292;BME280;36190;54.980;73.388;2023-08-12T00:14:21;99811.78;;;12.90;92.62
50292;BME280;36190;54.980;73.388;2023-08-12T00:16:48;99821.88;;;12.88;92.63
50292;BME280;36190;54.980;73.388;2023-08-12T00:19:17;99812.59;;;12.84;92.45
50292;BME280;36190;54.980;73.388;2023-08-12T00:21:44;99827.44;;;12.87;92.75
50292;BME280;36190;54.980;73.388;2023-08-12T00:24:12;99811.56;;;12.85;92.70
50292;BME280;36190;54.980;73.388;2023-08-12T00:26:39;99817.53;;;12.87;92.73
50292;BME280;36190;54.980;73.388;2023-08-12T00:29:07;99819.22;;;12.88;92.78
50292;BME280;36190;54.980;73.388;2023-08-12T00:31:35;99824.56;;;12.88;92.43
50292;BME280;36190;54.980;73.388;2023-08-12T00:34:02;99826.22;;;12.89;92.48
50292;BME280;36190;54.980;73.388;2023-08-12T00:36:31;99822.88;;;12.87;92.50
50292;BME280;36190;54.980;73.388;2023-08-12T00:38:59;99834.44;;;12.88;92.54
50292;BME280;36190;54.980;73.388;2023-08-12T00:41:27;99829.91;;;12.88;92.65
50292;BME280;36190;54.980;73.388;2023-08-12T00:43:54;99819.59;;;12.85;92.62
50292;BME280;36190;54.980;73.388;2023-08-12T00:46:22;99826.16;;;12.83;92.61
50292;BME280;36190;54.980;73.388;2023-08-12T00:48:50;99824.91;;;12.78;92.37
50292;BME280;36190;54.980;73.388;2023-08-12T00:51:17;99826.56;;;12.79;92.34
50292;BME280;36190;54.980;73.388;2023-08-12T00:53:46;99826.75;;;12.78;92.15
50292;BME280;36190;54.980;73.388;2023-08-12T00:56:14;99821.22;;;12.79;92.21
50292;BME280;36190;54.980;73.388;2023-08-12T00:58:41;99829.84;;;12.82;92.14
50292;BME280;36190;54.980;73.388;2023-08-12T01:01:10;99833.38;;;12.82;91.96
50292;BME280;36190;54.980;73.388;2023-08-12T01:03:39;99831.94;;;12.86;91.82
50292;BME280;36190;54.980;73.388;2023-08-12T01:06:07;99823.72;;;12.88;91.71
50292;BME280;36190;54.980;73.388;2023-08-12T01:08:35;99832.19;;;12.91;91.45
50292;BME280;36190;54.980;73.388;2023-08-12T01:11:12;99827.47;;;12.93;91.40
50292;BME280;36190;54.980;73.388;2023-08-12T01:13:46;99831.78;;;12.95;91.24
50292;BME280;36190;54.980;73.388;2023-08-12T01:16:16;99831.78;;;12.95;90.96
50292;BME280;36190;54.980;73.388;2023-08-12T01:18:45;99834.88;;;12.91;90.85
50292;BME280;36190;54.980;73.388;2023-08-12T01:21:16;99837.53;;;12.91;90.58
50292;BME280;36190;54.980;73.388;2023-08-12T01:23:46;99834.88;;;12.91;90.52
50292;BME280;36190;54.980;73.388;2023-08-12T01:26:14;99838.16;;;12.93;90.25
50292;BME280;36190;54.980;73.388;2023-08-12T01:28:42;99833.25;;;12.97;90.34
50292;BME280;36190;54.980;73.388;2023-08-12T01:31:12;99835.31;;;13.02;90.06
50292;BME280;36190;54.980;73.388;2023-08-12T01:33:46;99818.88;;;13.05;90.27
50292;BME280;36190;54.980;73.388;2023-08-12T01:36:19;99833.78;;;13.21;89.85
50292;BME280;36190;54.980;73.388;2023-08-12T01:38:51;99827.44;;;13.29;89.47
50292;BME280;36190;54.980;73.388;2023-08-12T01:41:19;99825.59;;;13.36;89.22
50292;BME280;36190;54.980;73.388;2023-08-12T01:43:48;99820.03;;;13.44;88.97
50292;BME280;36190;54.980;73.388;2023-08-12T01:46:15;99827.31;;;13.51;88.64
50292;BME280;36190;54.980;73.388;2023-08-12T01:48:43;99833.09;;;13.54;88.13
50292;BME280;36190;54.980;73.388;2023-08-12T01:51:11;99833.94;;;13.55;87.90
50292;BME280;36190;54.980;73.388;2023-08-12T01:53:39;99843.00;;;13.54;87.80
50292;BME280;36190;54.980;73.388;2023-08-12T01:56:08;99835.97;;;13.53;87.68
50292;BME280;36190;54.980;73.388;2023-08-12T01:58:35;99847.13;;;13.56;87.53
50292;BME280;36190;54.980;73.388;2023-08-12T02:01:03;99847.53;;;13.53;87.30
50292;BME280;36190;54.980;73.388;2023-08-12T02:03:30;99850.81;;;13.48;86.88
50292;BME280;36190;54.980;73.388;2023-08-12T02:05:57;99858.16;;;13.40;86.46
50292;BME280;36190;54.980;73.388;2023-08-12T02:08:25;99849.88;;;13.28;85.94
50292;BME280;36190;54.980;73.388;2023-08-12T02:10:52;99849.41;;;13.17;85.75
50292;BME280;36190;54.980;73.388;2023-08-12T02:13:21;99857.69;;;13.23;85.72
50292;BME280;36190;54.980;73.388;2023-08-12T02:15:49;99856.06;;;13.28;85.25
50292;BME280;36190;54.980;73.388;2023-08-12T02:18:16;99857.94;;;13.34;85.12
50292;BME280;36190;54.980;73.388;2023-08-12T02:20:46;99862.28;;;13.42;84.71
50292;BME280;36190;54.980;73.388;2023-08-12T02:23:14;99857.81;;;13.50;84.35
50292;BME280;36190;54.980;73.388;2023-08-12T02:25:41;99868.97;;;13.60;84.00
50292;BME280;36190;54.980;73.388;2023-08-12T02:28:09;99864.88;;;13.64;83.75
50292;BME280;36190;54.980;73.388;2023-08-12T02:30:38;99869.03;;;13.73;83.40
50292;BME280;36190;54.980;73.388;2023-08-12T02:33:05;99863.06;;;13.85;83.28
50292;BME280;36190;54.980;73.388;2023-08-12T02:35:32;99866.41;;;13.94;82.76
50292;BME280;36190;54.980;73.388;2023-08-12T02:38:00;99857.53;;;13.93;82.46
50292;BME280;36190;54.980;73.388;2023-08-12T02:40:28;99864.94;;;13.91;82.25
50292;BME280;36190;54.980;73.388;2023-08-12T02:42:55;99863.72;;;13.94;82.02
50292;BME280;36190;54.980;73.388;2023-08-12T02:45:23;99857.94;;;13.90;81.84
50292;BME280;36190;54.980;73.388;2023-08-12T02:47:51;99864.53;;;13.81;81.89
50292;BME280;36190;54.980;73.388;2023-08-12T02:50:19;99868.19;;;13.73;81.83
50292;BME280;36190;54.980;73.388;2023-08-12T02:52:46;99857.09;;;13.69;81.99
50292;BME280;36190;54.980;73.388;2023-08-12T02:55:14;99861.59;;;13.69;82.03
50292;BME280;36190;54.980;73.388;2023-08-12T02:57:42;99857.47;;;13.73;82.03
50292;BME280;36190;54.980;73.388;2023-08-12T03:00:10;99863.06;;;13.78;81.94
50292;BME280;36190;54.980;73.388;2023-08-12T03:02:39;99866.78;;;13.84;81.73
50292;BME280;36190;54.980;73.388;2023-08-12T03:05:10;99865.75;;;13.85;81.67
50292;BME280;36190;54.980;73.388;2023-08-12T03:07:37;99865.78;;;13.92;81.60
50292;BME280;36190;54.980;73.388;2023-08-12T03:10:06;99865.19;;;13.96;81.45
50292;BME280;36190;54.980;73.388;2023-08-12T03:12:34;99867.06;;;14.02;81.36
50292;BME280;36190;54.980;73.388;2023-08-12T03:15:02;99872.84;;;14.13;81.10
50292;BME280;36190;54.980;73.388;2023-08-12T03:17:30;99868.09;;;14.28;80.95
50292;BME280;36190;54.980;73.388;2023-08-12T03:19:58;99857.75;;;14.46;80.50
50292;BME280;36190;54.980;73.388;2023-08-12T03:22:27;99867.69;;;14.65;79.96
50292;BME280;36190;54.980;73.388;2023-08-12T03:24:55;99867.88;;;14.70;79.23
50292;BME280;36190;54.980;73.388;2023-08-12T03:27:22;99868.31;;;14.61;79.15
50292;BME280;36190;54.980;73.388;2023-08-12T03:29:50;99858.81;;;14.51;79.62
50292;BME280;36190;54.980;73.388;2023-08-12T03:32:18;99869.94;;;14.48;79.45
50292;BME280;36190;54.980;73.388;2023-08-12T03:34:45;99879.44;;;14.37;79.59
50292;BME280;36190;54.980;73.388;2023-08-12T03:37:13;99878.22;;;14.33;79.61
50292;BME280;36190;54.980;73.388;2023-08-12T03:39:42;99878.22;;;14.33;79.21
50292;BME280;36190;54.980;73.388;2023-08-12T03:42:09;99880.28;;;14.38;78.63
50292;BME280;36190;54.980;73.388;2023-08-12T03:44:36;99875.75;;;14.45;77.47
50292;BME280;36190;54.980;73.388;2023-08-12T03:47:04;99875.94;;;14.64;76.44
50292;BME280;36190;54.980;73.388;2023-08-12T03:49:32;99879.88;;;14.81;75.44
50292;BME280;36190;54.980;73.388;2023-08-12T03:51:59;99882.53;;;14.95;74.93
50292;BME280;36190;54.980;73.388;2023-08-12T03:54:27;99880.66;;;14.95;74.34
50292;BME280;36190;54.980;73.388;2023-08-12T03:56:56;99883.75;;;14.99;73.48
50292;BME280;36190;54.980;73.388;2023-08-12T03:59:24;99874.88;;;14.92;72.49
50292;BME280;36190;54.980;73.388;2023-08-12T04:01:51;99876.16;;;14.76;72.17
50292;BME280;36190;54.980;73.388;2023-08-12T04:04:19;99882.75;;;14.66;71.33
50292;BME280;36190;54.980;73.388;2023-08-12T04:06:46;99873.88;;;14.52;70.74
50292;BME280;36190;54.980;73.388;2023-08-12T04:09:17;99871.19;;;14.39;70.37
50292;BME280;36190;54.980;73.388;2023-08-12T04:11:45;99878.63;;;14.50;70.18
50292;BME280;36190;54.980;73.388;2023-08-12T04:14:14;99883.97;;;14.70;68.62
50292;BME280;36190;54.980;73.388;2023-08-12T04:16:42;99871.56;;;15.03;68.02
50292;BME280;36190;54.980;73.388;2023-08-12T04:19:09;99872.63;;;15.54;66.77
50292;BME280;36190;54.980;73.388;2023-08-12T04:21:37;99869.97;;;15.93;64.85
50292;BME280;36190;54.980;73.388;2023-08-12T04:24:05;99879.88;;;16.00;63.08
50292;BME280;36190;54.980;73.388;2023-08-12T04:26:33;99880.59;;;15.75;62.61
50292;BME280;36190;54.980;73.388;2023-08-12T04:29:00;99871.81;;;15.54;62.77
50292;BME280;36190;54.980;73.388;2023-08-12T04:31:29;99871.44;;;15.44;63.22
50292;BME280;36190;54.980;73.388;2023-08-12T04:33:56;99879.28;;;15.45;63.47
50292;BME280;36190;54.980;73.388;2023-08-12T04:36:24;99866.06;;;15.44;63.55
50292;BME280;36190;54.980;73.388;2023-08-12T04:38:51;99871.59;;;15.49;63.98
50292;BME280;36190;54.980;73.388;2023-08-12T04:41:19;99868.66;;;15.57;63.94
50292;BME280;36190;54.980;73.388;2023-08-12T04:43:46;99871.16;;;15.65;63.58
50292;BME280;36190;54.980;73.388;2023-08-12T04:46:14;99871.22;;;15.91;63.14
50292;BME280;36190;54.980;73.388;2023-08-12T04:48:43;99871.53;;;16.08;61.92
50292;BME280;36190;54.980;73.388;2023-08-12T04:51:11;99871.53;;;16.08;60.73
50292;BME280;36190;54.980;73.388;2023-08-12T04:53:40;99876.13;;;16.01;59.87
50292;BME280;36190;54.980;73.388;2023-08-12T04:56:07;99875.34;;;15.93;59.85
50292;BME280;36190;54.980;73.388;2023-08-12T04:58:35;99868.72;;;15.89;59.25
50292;BME280;36190;54.980;73.388;2023-08-12T05:01:02;99864.81;;;15.85;59.25
50292;BME280;36190;54.980;73.388;2023-08-12T05:03:30;99863.78;;;15.86;59.37
50292;BME280;36190;54.980;73.388;2023-08-12T05:05:59;99863.97;;;15.85;59.27
50292;BME280;36190;54.980;73.388;2023-08-12T05:08:26;99864.38;;;15.88;59.22
50292;BME280;36190;54.980;73.388;2023-08-12T05:10:54;99861.53;;;15.76;58.85
50292;BME280;36190;54.980;73.388;2023-08-12T05:13:21;99864.31;;;15.63;59.04
50292;BME280;36190;54.980;73.388;2023-08-12T05:15:49;99863.69;;;15.61;59.40
50292;BME280;36190;54.980;73.388;2023-08-12T05:18:17;99869.84;;;15.75;58.92
50292;BME280;36190;54.980;73.388;2023-08-12T05:20:44;99866.69;;;15.91;58.31
50292;BME280;36190;54.980;73.388;2023-08-12T05:23:13;99883.34;;;16.07;57.87
50292;BME280;36190;54.980;73.388;2023-08-12T05:25:41;99867.28;;;16.26;57.76
50292;BME280;36190;54.980;73.388;2023-08-12T05:28:08;99867.81;;;16.34;56.97
50292;BME280;36190;54.980;73.388;2023-08-12T05:30:36;99867.16;;;16.39;57.02
50292;BME280;36190;54.980;73.388;2023-08-12T05:33:04;99863.81;;;16.44;56.77
50292;BME280;36190;54.980;73.388;2023-08-12T05:35:33;99869.53;;;16.54;57.03
50292;BME280;36190;54.980;73.388;2023-08-12T05:38:00;99869.75;;;16.71;56.45
50292;BME280;36190;54.980;73.388;2023-08-12T05:40:29;99866.34;;;16.83;55.63
50292;BME280;36190;54.980;73.388;2023-08-12T05:42:57;99876.97;;;17.03;55.04
50292;BME280;36190;54.980;73.388;2023-08-12T05:45:24;99876.75;;;17.04;54.61
50292;BME280;36190;54.980;73.388;2023-08-12T05:47:52;99883.59;;;17.00;54.43
50292;BME280;36190;54.980;73.388;2023-08-12T05:50:19;99887.03;;;16.89;54.52
50292;BME280;36190;54.980;73.388;2023-08-12T05:52:47;99885.28;;;16.76;54.80
50292;BME280;36190;54.980;73.388;2023-08-12T05:55:14;99888.97;;;16.82;54.81
50292;BME280;36190;54.980;73.388;2023-08-12T05:57:43;99884.94;;;16.91;54.66
50292;BME280;36190;54.980;73.388;2023-08-12T06:00:11;99882.13;;;17.04;54.83
50292;BME280;36190;54.980;73.388;2023-08-12T06:02:39;99881.16;;;17.17;55.06
50292;BME280;36190;54.980;73.388;2023-08-12T06:05:07;99873.75;;;17.31;54.70
50292;BME280;36190;54.980;73.388;2023-08-12T06:07:35;99875.28;;;17.39;54.61
50292;BME280;36190;54.980;73.388;2023-08-12T06:10:03;99881.53;;;17.40;54.54
50292;BME280;36190;54.980;73.388;2023-08-12T06:12:31;99872.16;;;17.42;54.58
50292;BME280;36190;54.980;73.388;2023-08-12T06:15:00;99876.69;;;17.60;54.17
50292;BME280;36190;54.980;73.388;2023-08-12T06:17:28;99871.97;;;17.75;52.82
50292;BME280;36190;54.980;73.388;2023-08-12T06:19:55;99870.81;;;17.82;51.34
50292;BME280;36190;54.980;73.388;2023-08-12T06:22:23;99880.00;;;17.93;49.48
50292;BME280;36190;54.980;73.388;2023-08-12T06:24:50;99874.25;;;18.01;48.77
50292;BME280;36190;54.980;73.388;2023-08-12T06:27:17;99881.69;;;18.06;48.54
50292;BME280;36190;54.980;73.388;2023-08-12T06:29:46;99880.34;;;17.97;48.61
50292;BME280;36190;54.980;73.388;2023-08-12T06:32:15;99877.09;;;17.76;49.06
50292;BME280;36190;54.980;73.388;2023-08-12T06:34:43;99873.13;;;17.79;49.59
50292;BME280;36190;54.980;73.388;2023-08-12T06:37:10;99885.34;;;17.81;49.67
50292;BME280;36190;54.980;73.388;2023-08-12T06:39:37;99886.84;;;17.77;49.35
50292;BME280;36190;54.980;73.388;2023-08-12T06:42:05;99868.97;;;17.64;49.45
50292;BME280;36190;54.980;73.388;2023-08-12T06:44:33;99875.22;;;17.46;50.26
50292;BME280;36190;54.980;73.388;2023-08-12T06:47:00;99892.91;;;17.23;51.63
50292;BME280;36190;54.980;73.388;2023-08-12T06:49:29;99890.44;;;17.03;52.73
50292;BME280;36190;54.980;73.388;2023-08-12T06:51:57;99892.84;;;16.86;53.51
50292;BME280;36190;54.980;73.388;2023-08-12T06:54:25;99885.88;;;16.78;53.51
50292;BME280;36190;54.980;73.388;2023-08-12T06:56:52;99900.41;;;16.77;53.40
50292;BME280;36190;54.980;73.388;2023-08-12T06:59:19;99897.16;;;16.68;53.34
50292;BME280;36190;54.980;73.388;2023-08-12T07:01:47;99893.97;;;16.53;53.49
50292;BME280;36190;54.980;73.388;2023-08-12T07:04:14;99915.13;;;16.49;53.53
50292;BME280;36190;54.980;73.388;2023-08-12T07:06:43;99898.59;;;16.45;53.85
50292;BME280;36190;54.980;73.388;2023-08-12T07:09:11;99900.78;;;16.55;54.00
50292;BME280;36190;54.980;73.388;2023-08-12T07:11:38;99896.28;;;16.74;53.41
50292;BME280;36190;54.980;73.388;2023-08-12T07:14:06;99890.75;;;16.88;53.04
50292;BME280;36190;54.980;73.388;2023-08-12T07:16:33;99897.34;;;16.92;52.93
50292;BME280;36190;54.980;73.388;2023-08-12T07:19:01;99889.66;;;16.96;52.68
50292;BME280;36190;54.980;73.388;2023-08-12T07:21:29;99899.84;;;16.94;52.56
50292;BME280;36190;54.980;73.388;2023-08-12T07:23:58;99903.25;;;16.82;52.58
50292;BME280;36190;54.980;73.388;2023-08-12T07:26:25;99898.31;;;16.79;52.81
50292;BME280;36190;54.980;73.388;2023-08-12T07:28:53;99901.09;;;16.91;52.86
50292;BME280;36190;54.980;73.388;2023-08-12T07:31:20;99912.81;;;17.03;52.83
50292;BME280;36190;54.980;73.388;2023-08-12T07:33:48;99900.09;;;17.11;52.71
50292;BME280;36190;54.980;73.388;2023-08-12T07:36:15;99903.63;;;17.30;52.51
50292;BME280;36190;54.980;73.388;2023-08-12T07:38:43;99903.38;;;17.50;52.11
50292;BME280;36190;54.980;73.388;2023-08-12T07:41:12;99905.53;;;17.60;51.86
50292;BME280;36190;54.980;73.388;2023-08-12T07:43:39;99905.47;;;17.67;51.63
50292;BME280;36190;54.980;73.388;2023-08-12T07:46:07;99911.44;;;17.69;51.59
50292;BME280;36190;54.980;73.388;2023-08-12T07:48:34;99912.06;;;17.71;51.77
50292;BME280;36190;54.980;73.388;2023-08-12T07:51:02;99908.63;;;17.64;51.83
50292;BME280;36190;54.980;73.388;2023-08-12T07:53:29;99915.81;;;17.51;52.03
50292;BME280;36190;54.980;73.388;2023-08-12T07:55:57;99906.53;;;17.28;52.37
50292;BME280;36190;54.980;73.388;2023-08-12T07:58:26;99919.25;;;17.02;52.98
50292;BME280;36190;54.980;73.388;2023-08-12T08:00:53;99925.47;;;16.77;53.70
50292;BME280;36190;54.980;73.388;2023-08-12T08:03:21;99939.16;;;16.50;54.76
50292;BME280;36190;54.980;73.388;2023-08-12T08:05:49;99941.66;;;16.13;56.45
50292;BME280;36190;54.980;73.388;2023-08-12T08:08:16;99937.88;;;15.82;57.82
50292;BME280;36190;54.980;73.388;2023-08-12T08:10:44;99934.66;;;15.60;58.84
50292;BME280;36190;54.980;73.388;2023-08-12T08:13:11;99942.53;;;15.48;59.57
50292;BME280;36190;54.980;73.388;2023-08-12T08:15:40;99938.44;;;15.38;60.18
50292;BME280;36190;54.980;73.388;2023-08-12T08:18:08;99936.75;;;15.44;60.19
50292;BME280;36190;54.980;73.388;2023-08-12T08:20:35;99941.91;;;15.52;60.11
50292;BME280;36190;54.980;73.388;2023-08-12T08:23:03;99940.03;;;15.66;60.27
50292;BME280;36190;54.980;73.388;2023-08-12T08:25:31;99945.75;;;15.77;60.11
50292;BME280;36190;54.980;73.388;2023-08-12T08:27:59;99943.03;;;15.84;60.17
50292;BME280;36190;54.980;73.388;2023-08-12T08:30:26;99946.13;;;15.94;60.17
50292;BME280;36190;54.980;73.388;2023-08-12T08:32:55;99953.50;;;16.05;59.99
50292;BME280;36190;54.980;73.388;2023-08-12T08:35:23;99950.97;;;16.17;59.90
50292;BME280;36190;54.980;73.388;2023-08-12T08:37:50;99962.47;;;16.31;59.74
50292;BME280;36190;54.980;73.388;2023-08-12T08:40:18;99960.78;;;16.37;59.54
50292;BME280;36190;54.980;73.388;2023-08-12T08:42:47;99962.47;;;16.31;59.25
50292;BME280;36190;54.980;73.388;2023-08-12T08:45:18;99950.38;;;16.15;58.97
50292;BME280;36190;54.980;73.388;2023-08-12T08:47:48;99962.84;;;16.03;59.10
50292;BME280;36190;54.980;73.388;2023-08-12T08:50:18;99966.81;;;15.93;59.24
50292;BME280;36190;54.980;73.388;2023-08-12T08:52:46;99968.91;;;15.91;59.27
50292;BME280;36190;54.980;73.388;2023-08-12T08:55:15;99961.84;;;15.90;59.26
50292;BME280;36190;54.980;73.388;2023-08-12T08:57:43;99966.38;;;15.97;59.16
50292;BME280;36190;54.980;73.388;2023-08-12T09:00:12;99968.66;;;16.00;59.05
50292;BME280;36190;54.980;73.388;2023-08-12T09:02:41;99979.41;;;16.00;58.76
50292;BME280;36190;54.980;73.388;2023-08-12T09:05:11;99971.78;;;15.90;58.82
50292;BME280;36190;54.980;73.388;2023-08-12T09:07:42;99974.06;;;15.86;58.83
50292;BME280;36190;54.980;73.388;2023-08-12T09:10:10;99971.81;;;15.76;59.17
50292;BME280;36190;54.980;73.388;2023-08-12T09:12:38;99984.44;;;15.76;58.93
50292;BME280;36190;54.980;73.388;2023-08-12T09:15:07;99973.88;;;15.81;58.70
50292;BME280;36190;54.980;73.388;2023-08-12T09:17:35;99978.81;;;15.91;58.30
50292;BME280;36190;54.980;73.388;2023-08-12T09:20:03;99985.44;;;15.95;57.94
50292;BME280;36190;54.980;73.388;2023-08-12T09:22:33;99991.84;;;16.01;57.52
50292;BME280;36190;54.980;73.388;2023-08-12T09:25:04;99984.16;;;15.98;57.25
50292;BME280;36190;54.980;73.388;2023-08-12T09:27:31;99987.50;;;16.00;56.96
50292;BME280;36190;54.980;73.388;2023-08-12T09:30:02;99987.50;;;16.00;56.80
50292;BME280;36190;54.980;73.388;2023-08-12T09:32:30;99987.25;;;16.08;56.60
50292;BME280;36190;54.980;73.388;2023-08-12T09:35:00;99984.13;;;16.11;56.55
50292;BME280;36190;54.980;73.388;2023-08-12T09:37:31;99985.75;;;16.19;56.40
50292;BME280;36190;54.980;73.388;2023-08-12T09:39:59;99992.28;;;16.30;56.07
50292;BME280;36190;54.980;73.388;2023-08-12T09:42:28;99993.91;;;16.38;56.18
50292;BME280;36190;54.980;73.388;2023-08-12T09:44:56;99989.25;;;16.52;55.75
50292;BME280;36190;54.980;73.388;2023-08-12T09:47:25;99997.03;;;16.67;55.58
50292;BME280;36190;54.980;73.388;2023-08-12T09:49:53;99994.91;;;16.75;55.53
50292;BME280;36190;54.980;73.388;2023-08-12T09:52:22;99995.19;;;16.93;55.42
50292;BME280;36190;54.980;73.388;2023-08-12T09:54:50;99997.13;;;17.11;55.04
50292;BME280;36190;54.980;73.388;2023-08-12T09:57:25;99999.69;;;17.24;54.45
50292;BME280;36190;54.980;73.388;2023-08-12T09:59:54;100009.72;;;17.36;54.33
50292;BME280;36190;54.980;73.388;2023-08-12T10:02:23;100007.28;;;17.34;53.76
50292;BME280;36190;54.980;73.388;2023-08-12T10:04:53;100011.66;;;17.28;53.75
50292;BME280;36190;54.980;73.388;2023-08-12T10:07:23;100012.34;;;17.24;53.66
50292;BME280;36190;54.980;73.388;2023-08-12T10:09:50;100017.63;;;17.12;53.87
50292;BME280;36190;54.980;73.388;2023-08-12T10:12:18;100006.31;;;17.03;53.94
50292;BME280;36190;54.980;73.388;2023-08-12T10:14:47;100012.31;;;17.05;53.18
50292;BME280;36190;54.980;73.388;2023-08-12T10:17:16;100017.88;;;17.10;52.99
50292;BME280;36190;54.980;73.388;2023-08-12T10:19:44;100019.44;;;17.18;52.97
50292;BME280;36190;54.980;73.388;2023-08-12T10:22:13;100016.69;;;17.25;52.97
50292;BME280;36190;54.980;73.388;2023-08-12T10:24:42;100022.44;;;17.28;52.73
50292;BME280;36190;54.980;73.388;2023-08-12T10:27:10;100028.00;;;17.34;52.63
50292;BME280;36190;54.980;73.388;2023-08-12T10:29:38;100028.63;;;17.36;52.52
50292;BME280;36190;54.980;73.388;2023-08-12T10:32:06;100030.53;;;17.28;52.76
50292;BME280;36190;54.980;73.388;2023-08-12T10:34:37;100026.81;;;17.29;52.91
50292;BME280;36190;54.980;73.388;2023-08-12T10:37:04;100036.28;;;17.39;52.84
50292;BME280;36190;54.980;73.388;2023-08-12T10:39:33;100041.09;;;17.55;52.84
50292;BME280;36190;54.980;73.388;2023-08-12T10:42:00;100042.59;;;17.70;52.76
50292;BME280;36190;54.980;73.388;2023-08-12T10:44:39;100040.03;;;17.75;52.49
50292;BME280;36190;54.980;73.388;2023-08-12T10:47:08;100055.47;;;17.68;52.65
50292;BME280;36190;54.980;73.388;2023-08-12T10:49:42;100051.13;;;17.67;52.91
50292;BME280;36190;54.980;73.388;2023-08-12T10:52:26;100057.56;;;17.66;52.60
50292;BME280;36190;54.980;73.388;2023-08-12T10:54:54;100056.28;;;17.50;52.72
50292;BME280;36190;54.980;73.388;2023-08-12T10:57:35;100052.00;;;17.42;52.59
50292;BME280;36190;54.980;73.388;2023-08-12T11:00:05;100060.97;;;17.36;52.68
50292;BME280;36190;54.980;73.388;2023-08-12T11:02:34;100060.38;;;17.34;52.65
50292;BME280;36190;54.980;73.388;2023-08-12T11:05:05;100061.03;;;17.29;52.66
50292;BME280;36190;54.980;73.388;2023-08-12T11:07:37;100061.50;;;17.26;52.88
50292;BME280;36190;54.980;73.388;2023-08-12T11:10:10;100059.06;;;17.17;52.85
50292;BME280;36190;54.980;73.388;2023-08-12T11:12:38;100061.19;;;17.09;52.79
50292;BME280;36190;54.980;73.388;2023-08-12T11:15:07;100062.31;;;16.94;52.64
50292;BME280;36190;54.980;73.388;2023-08-12T11:17:35;100061.38;;;16.82;52.67
50292;BME280;36190;54.980;73.388;2023-08-12T11:20:06;100060.41;;;16.69;52.58
50292;BME280;36190;54.980;73.388;2023-08-12T11:22:36;100059.22;;;16.58;52.83
50292;BME280;36190;54.980;73.388;2023-08-12T11:25:06;100070.03;;;16.52;52.97
50292;BME280;36190;54.980;73.388;2023-08-12T11:27:38;100069.66;;;16.48;52.82
50292;BME280;36190;54.980;73.388;2023-08-12T11:30:07;100061.81;;;16.40;52.99
50292;BME280;36190;54.980;73.388;2023-08-12T11:32:36;100065.16;;;16.35;53.10
50292;BME280;36190;54.980;73.388;2023-08-12T11:35:07;100069.34;;;16.31;52.99
50292;BME280;36190;54.980;73.388;2023-08-12T11:37:37;100070.59;;;16.28;52.87
50292;BME280;36190;54.980;73.388;2023-08-12T11:40:06;100078.88;;;16.27;52.80
50292;BME280;36190;54.980;73.388;2023-08-12T11:42:34;100064.81;;;16.25;52.93
50292;BME280;36190;54.980;73.388;2023-08-12T11:45:03;100071.00;;;16.32;53.04
50292;BME280;36190;54.980;73.388;2023-08-12T11:47:30;100069.34;;;16.31;53.10
50292;BME280;36190;54.980;73.388;2023-08-12T11:49:58;100073.44;;;16.33;52.83
50292;BME280;36190;54.980;73.388;2023-08-12T11:52:27;100072.84;;;16.31;52.90
50292;BME280;36190;54.980;73.388;2023-08-12T11:54:54;100070.16;;;16.31;52.88
50292;BME280;36190;54.980;73.388;2023-08-12T11:57:22;100074.06;;;16.35;53.11
50292;BME280;36190;54.980;73.388;2023-08-12T11:59:50;100080.06;;;16.38;53.01
50292;BME280;36190;54.980;73.388;2023-08-12T12:02:17;100078.38;;;16.43;53.20
50292;BME280;36190;54.980;73.388;2023-08-12T12:04:46;100075.25;;;16.46;53.18
50292;BME280;36190;54.980;73.388;2023-08-12T12:07:20;100078.56;;;16.48;52.71
50292;BME280;36190;54.980;73.388;2023-08-12T12:09:52;100083.16;;;16.41;52.53
50292;BME280;36190;54.980;73.388;2023-08-12T12:12:22;100085.25;;;16.39;52.44
50292;BME280;36190;54.980;73.388;2023-08-12T12:14:51;100079.63;;;16.41;52.46
50292;BME280;36190;54.980;73.388;2023-08-12T12:17:21;100080.03;;;16.44;52.63
50292;BME280;36190;54.980;73.388;2023-08-12T12:19:55;100075.69;;;16.43;52.67
50292;BME280;36190;54.980;73.388;2023-08-12T12:22:27;100073.81;;;16.44;52.72
50292;BME280;36190;54.980;73.388;2023-08-12T12:24:58;100079.22;;;16.37;52.31
50292;BME280;36190;54.980;73.388;2023-08-12T12:27:26;100087.13;;;16.32;52.37
50292;BME280;36190;54.980;73.388;2023-08-12T12:29:54;100084.03;;;16.28;52.29
50292;BME280;36190;54.980;73.388;2023-08-12T12:32:21;100088.00;;;16.26;52.24
50292;BME280;36190;54.980;73.388;2023-08-12T12:34:49;100084.03;;;16.28;52.43
50292;BME280;36190;54.980;73.388;2023-08-12T12:37:16;100097.50;;;16.28;52.32
50292;BME280;36190;54.980;73.388;2023-08-12T12:39:44;100092.75;;;16.24;52.13
50292;BME280;36190;54.980;73.388;2023-08-12T12:42:13;100102.09;;;16.21;52.31
50292;BME280;36190;54.980;73.388;2023-08-12T12:44:40;100104.97;;;16.19;52.25
50292;BME280;36190;54.980;73.388;2023-08-12T12:47:08;100109.16;;;16.15;51.97
50292;BME280;36190;54.980;73.388;2023-08-12T12:49:36;100124.69;;;16.06;51.68
50292;BME280;36190;54.980;73.388;2023-08-12T12:52:04;100120.78;;;15.95;51.58
50292;BME280;36190;54.980;73.388;2023-08-12T12:54:32;100121.59;;;15.89;51.63